Flight Track Log - Related Links

Times and Time Zones

All times are in EDT time to prevent confusion due to time zone crossing. See the N560HM flight status page for this flight to view local times or setup timezone preferences in your user account.

Time Position Orientation Groundspeed Altitude Reporting Facility
EDT Latitude Longitude Course Direction KTS MPH feet Rate Location/Type
Sun 05:04:58 PM 40.3897 -79.9797 81° East 243 280 2,900  Level Cleveland Center
Sun 05:06:00 PM 40.4211 -79.9106 59° Northeast 220 253 4,900 2,661 Climbing Cleveland Center
Sun 05:07:02 PM 40.4394 -79.8239 74° East 251 289 8,400 2,952 Climbing Cleveland Center
Sun 05:08:04 PM 40.4614 -79.7133 75° East 305 351 11,000 3,048 Climbing Cleveland Center
Sun 05:09:06 PM 40.4917 -79.5664 75° East 346 398 14,700 3,194 Climbing Cleveland Center
Sun 05:10:00 PM 40.5221 -79.2064 81° East  Level FlightAware Approximate
Sun 05:10:08 PM 40.5186 -79.4344 75° East 370 426 17,600  Level Cleveland Center
Sun 05:11:10 PM 40.5475 -79.2903 75° East 391 450 20,000 2,390 Climbing Cleveland Center
Sun 05:12:11 PM 40.5758 -79.1453 76° East 408 470 22,500 2,439 Climbing Cleveland Center
Sun 05:13:13 PM 40.6050 -78.9981 75° East 425 489 25,000 2,081 Climbing Cleveland Center
Sun 05:14:15 PM 40.6375 -78.8411 75° East 434 499 26,800 968 Climbing Cleveland Center
Sun 05:15:17 PM 40.6900 -78.6458 70° East 476 548 27,000 97 Climbing Cleveland Center
Sun 05:16:19 PM 40.7481 -78.4825 65° Northeast 497 572 27,000  Level Cleveland Center
Sun 05:17:21 PM 40.8061 -78.3164 65° Northeast 505 581 27,000  Level Cleveland Center
Sun 05:18:23 PM 40.8633 -78.1497 66° East 506 582 27,000  Level Cleveland Center
Sun 05:19:25 PM 40.9339 -77.9489 65° Northeast 507 583 27,000  Level Cleveland Center
Sun 05:20:28 PM 41.0061 -77.7903 59° Northeast 510 587 27,000  Level Cleveland Center
Sun 05:21:30 PM 41.0781 -77.6308 59° Northeast 509 586 27,000  Level Cleveland Center
Sun 05:22:32 PM 41.1492 -77.4700 60° Northeast 510 587 27,000  Level Cleveland Center
Sun 05:23:34 PM 41.2333 -77.2761 60° Northeast 510 587 27,000  Level Cleveland Center
Sun 05:24:36 PM 41.3028 -77.1150 60° Northeast 505 581 27,000  Level Cleveland Center
Sun 05:25:38 PM 41.3739 -76.9522 60° Northeast 509 586 27,000  Level Cleveland Center
Sun 05:26:40 PM 41.4447 -76.7897 60° Northeast 509 586 27,000  Level Cleveland Center
Sun 05:27:43 PM 41.5039 -76.6219 65° Northeast 506 582 27,000  Level Cleveland Center
Sun 05:28:52 PM 41.4717 -76.3942 101° East 459 528 27,000 -651 Level New York Center
Sun 05:29:52 PM 41.4250 -76.2325 111° Southeast 459 528 25,600 -1,850 Descending New York Center
Sun 05:30:52 PM 41.3819 -76.0797 111° Southeast 454 522 23,300 -2,050 Descending New York Center
Sun 05:31:52 PM 41.3442 -75.9469 111° Southeast 443 510 21,500 -1,900 Descending New York Center
Sun 05:32:52 PM 41.3044 -75.8003 110° East 429 494 19,500 -1,750 Descending New York Center
Sun 05:33:52 PM 41.2589 -75.6450 111° Southeast 415 478 18,000 -1,100 Descending New York Center
Sun 05:34:52 PM 41.2161 -75.5178 114° Southeast 393 452 17,300 -1,800 Descending New York Center
Sun 05:35:52 PM 41.1717 -75.3822 113° Southeast 388 447 14,400 -2,850 Descending New York Center
Sun 05:36:52 PM 41.1322 -75.2694 115° Southeast 383 441 11,600 -2,600 Descending New York Center
Sun 05:37:52 PM 41.0947 -75.1569 114° Southeast 355 409 9,200 -2,350 Descending New York Center
Sun 05:38:52 PM 41.0572 -75.0472 114° Southeast 308 354 6,900 -1,600 Descending New York Center
Sun 05:39:52 PM 41.0247 -74.9625 117° Southeast 294 338 6,000 -950 Descending New York Center
Sun 05:40:52 PM 40.9781 -74.8636 122° Southeast 283 326 5,000 -950 Descending New York Center
Sun 05:41:52 PM 40.9453 -74.7872 120° Southeast 278 320 4,100 -1,000 Descending New York Center
Sun 05:42:52 PM 40.9067 -74.6972 120° Southeast 264 304 3,000 -550 Descending New York Center
Sun 05:43:52 PM 40.8739 -74.6239 121° Southeast 264 304 3,000  Level New York Center
Sun 05:44:28 PM 40.8500 -74.5667 119° Southeast 257 296 3,000  Level New York TRACON
Sun 05:45:22 PM 40.8167 -74.5000 123° Southeast 252 290 3,000  Level New York TRACON
Sun 05:46:22 PM 40.7833 -74.4167 118° Southeast 237 273 3,000 -200 Level New York TRACON
Sun 05:47:22 PM 40.7500 -74.3500 123° Southeast 210 242 2,600 -500 Descending New York TRACON
Sun 05:48:22 PM 40.7167 -74.2833 123° Southeast 199 229 2,000 -500 Descending New York TRACON
Sun 05:49:22 PM 40.7500 -74.2167 57° Northeast 186 214 1,600 -250 Descending New York TRACON
Sun 05:50:22 PM 40.7833 -74.1833 37° Northeast 174 200 1,500 -53 Descending New York TRACON
Sun 05:51:16 PM 40.8000 -74.1333 66° East 160 184 1,500 -263 Level New York TRACON
Sun 05:52:16 PM 40.8167 -74.0833 66° East 154 177 1,000 -500 Descending New York TRACON
Sun 05:54:00 PM 40.8500 -74.0500 79° East  Level FlightAware Approximate
Sun 06:01:00 PM 40.8501 -74.0608 79° East  Level Estimated
Sun 06:02:00 PM 40.8501 -74.0608 254° West  Level Estimated

Login

Don't have an account? Register now (free) for customized features, flight alerts, and more!